Time;durP1;ratioP1;P1;durP2;ratioP2;P2;SDS_P1;SDS_P2;PMS_P1;PMS_P2;Temp;Humidity;BMP_temperature;BMP_pressure;BME280_temperature;BME280_humidity;BME280_pressure;Samples;Min_cycle;Max_cycle;Signal;HPM_P1;HPM_P2
2023/08/06 00:00:24;;;;;;;2.42;1.30;;;13.90;99.90;;;;;;6190885;23;20023;-86
2023/08/06 00:02:50;;;;;;;1.95;1.40;;;13.70;99.90;;;;;;6217777;23;20019;-86
2023/08/06 00:05:20;;;;;;;2.20;1.27;;;13.70;99.90;;;;;;6218064;23;20020;-87
2023/08/06 00:07:48;;;;;;;5.00;2.45;;;13.70;99.90;;;;;;6190786;23;20023;-86
2023/08/06 00:10:14;;;;;;;2.05;1.10;;;13.70;99.90;;;;;;6215806;23;20019;-86
2023/08/06 00:12:40;;;;;;;2.28;1.40;;;13.70;99.90;;;;;;6191067;23;20056;-86
2023/08/06 00:15:06;;;;;;;2.05;1.38;;;13.70;99.90;;;;;;6217007;23;20017;-87
2023/08/06 00:17:31;;;;;;;3.72;1.48;;;13.60;99.90;;;;;;6217805;23;20016;-87
2023/08/06 00:19:57;;;;;;;2.80;1.23;;;13.70;99.90;;;;;;6217873;23;20396;-87
2023/08/06 00:22:23;;;;;;;2.40;1.38;;;13.70;99.90;;;;;;6165892;23;20511;-87
2023/08/06 00:24:49;;;;;;;2.13;1.27;;;13.70;99.90;;;;;;6190320;23;20432;-86
2023/08/06 00:27:15;;;;;;;3.20;1.27;;;13.70;99.90;;;;;;6190595;23;20063;-86
2023/08/06 00:29:40;;;;;;;2.28;1.73;;;13.70;99.90;;;;;;6190922;23;20062;-86
2023/08/06 00:32:06;;;;;;;3.05;1.00;;;13.70;99.90;;;;;;6190289;23;20020;-86
2023/08/06 00:34:32;;;;;;;2.63;1.10;;;13.60;99.90;;;;;;6189973;23;20018;-86
2023/08/06 00:36:57;;;;;;;1.67;1.20;;;13.60;99.90;;;;;;6165874;23;20027;-86
2023/08/06 00:39:23;;;;;;;2.70;1.40;;;13.70;99.90;;;;;;6190668;23;20040;-87
2023/08/06 00:41:49;;;;;;;1.90;1.27;;;13.60;99.90;;;;;;6190585;23;20033;-87
2023/08/06 00:44:14;;;;;;;1.70;1.10;;;13.60;99.90;;;;;;6215498;23;20009;-87
2023/08/06 00:46:40;;;;;;;2.53;1.10;;;13.60;99.90;;;;;;6190492;23;20096;-86
2023/08/06 00:49:06;;;;;;;2.05;1.10;;;13.60;99.90;;;;;;6216704;23;20390;-87
2023/08/06 00:51:32;;;;;;;1.88;1.27;;;13.80;99.90;;;;;;6217106;23;20023;-87
2023/08/06 00:53:58;;;;;;;3.33;1.35;;;13.80;99.90;;;;;;6190363;23;20032;-87
2023/08/06 00:56:25;;;;;;;2.22;1.40;;;13.60;99.90;;;;;;6165163;23;20020;-86
2023/08/06 00:58:51;;;;;;;1.77;0.98;;;13.60;99.90;;;;;;6190335;23;20051;-86
2023/08/06 01:01:17;;;;;;;1.85;1.00;;;14.00;99.90;;;;;;6190688;23;20028;-86
2023/08/06 01:03:42;;;;;;;2.38;1.00;;;13.60;99.90;;;;;;6217316;23;20009;-86
2023/08/06 01:06:09;;;;;;;1.50;1.10;;;13.70;99.90;;;;;;6217199;23;20027;-86
2023/08/06 01:08:46;;;;;;;3.47;1.40;;;13.60;99.90;;;;;;6216934;23;20028;-87
2023/08/06 01:11:12;;;;;;;2.13;1.02;;;13.70;99.90;;;;;;6189982;23;20024;-87
2023/08/06 01:13:51;;;;;;;2.00;1.08;;;13.70;99.90;;;;;;6217499;23;20027;-87
2023/08/06 01:16:20;;;;;;;1.50;1.08;;;13.70;99.90;;;;;;6165761;23;20027;-86
2023/08/06 01:18:49;;;;;;;2.20;1.70;;;13.70;99.90;;;;;;6217145;23;20021;-86
2023/08/06 01:21:15;;;;;;;2.05;1.40;;;13.70;99.90;;;;;;6217208;23;20413;-87
2023/08/06 01:23:42;;;;;;;2.40;1.33;;;13.70;99.90;;;;;;6217134;23;20027;-87
2023/08/06 01:26:21;;;;;;;2.22;1.50;;;13.70;99.90;;;;;;6216847;23;20016;-87
2023/08/06 01:29:02;;;;;;;3.55;2.03;;;13.70;99.90;;;;;;6217317;23;20083;-86
2023/08/06 01:31:33;;;;;;;6.63;2.83;;;13.70;99.90;;;;;;6216960;23;20099;-86
2023/08/06 01:34:01;;;;;;;4.45;1.55;;;13.70;99.90;;;;;;6216862;23;20475;-87
2023/08/06 01:36:28;;;;;;;3.28;1.52;;;14.10;99.90;;;;;;6190152;23;20021;-87
2023/08/06 01:38:54;;;;;;;2.80;1.67;;;13.70;99.90;;;;;;6216533;23;20373;-87
2023/08/06 01:41:20;;;;;;;4.38;1.95;;;13.70;99.90;;;;;;6189923;23;20004;-86
2023/08/06 01:43:46;;;;;;;2.55;1.70;;;13.90;99.90;;;;;;6190056;23;20103;-87
2023/08/06 01:46:11;;;;;;;2.45;1.67;;;13.70;99.90;;;;;;6190176;23;20339;-87
2023/08/06 01:48:37;;;;;;;2.60;1.85;;;13.70;99.90;;;;;;6189877;23;20533;-87
2023/08/06 01:51:06;;;;;;;3.20;2.10;;;13.70;99.90;;;;;;6216944;23;20016;-87
2023/08/06 01:53:32;;;;;;;2.72;1.88;;;13.80;99.90;;;;;;6215243;23;20028;-88
2023/08/06 01:55:58;;;;;;;5.18;2.38;;;13.70;99.90;;;;;;6190159;23;20031;-86
2023/08/06 01:58:24;;;;;;;2.63;1.88;;;13.70;99.90;;;;;;6216193;23;20099;-89
2023/08/06 02:00:49;;;;;;;2.50;1.70;;;13.70;99.90;;;;;;6214607;23;20024;-86
2023/08/06 02:03:15;;;;;;;2.22;1.60;;;13.70;99.90;;;;;;6216672;23;20023;-89
2023/08/06 02:05:41;;;;;;;2.92;2.05;;;13.90;99.90;;;;;;6217185;23;20012;-84
2023/08/06 02:08:07;;;;;;;3.78;1.65;;;13.70;99.90;;;;;;6216463;23;20017;-84
2023/08/06 02:10:33;;;;;;;3.30;1.90;;;14.00;99.90;;;;;;6216583;23;20023;-85
2023/08/06 02:12:59;;;;;;;5.10;2.70;;;13.80;99.90;;;;;;6217201;23;20100;-85
2023/08/06 02:15:24;;;;;;;2.63;1.98;;;13.70;99.90;;;;;;6191715;23;20396;-86
2023/08/06 02:17:50;;;;;;;3.40;2.35;;;13.70;99.90;;;;;;6194384;23;20026;-88
2023/08/06 02:20:16;;;;;;;3.05;1.92;;;14.00;99.90;;;;;;6220432;23;20012;-86
2023/08/06 02:22:41;;;;;;;3.97;2.22;;;13.70;99.90;;;;;;6218400;23;20024;-88
2023/08/06 02:25:07;;;;;;;2.90;1.65;;;13.70;99.90;;;;;;6216525;23;20012;-88
2023/08/06 02:27:33;;;;;;;3.60;2.40;;;13.70;99.90;;;;;;6190724;23;20044;-88
2023/08/06 02:29:59;;;;;;;3.03;2.15;;;13.70;99.90;;;;;;6217362;23;20060;-86
2023/08/06 02:32:24;;;;;;;3.13;1.92;;;13.70;99.90;;;;;;6191201;23;20027;-89
2023/08/06 02:34:50;;;;;;;2.80;2.05;;;13.80;99.90;;;;;;6191263;23;20023;-89
2023/08/06 02:37:16;;;;;;;4.63;1.85;;;13.70;99.90;;;;;;6190489;23;20025;-87
2023/08/06 02:47:04;;;;;;;3.72;1.92;;;13.70;99.90;;;;;;6217329;23;20105;-89
2023/08/06 02:49:30;;;;;;;2.55;1.67;;;13.70;99.90;;;;;;6190517;23;20021;-90
2023/08/06 02:51:55;;;;;;;2.42;1.52;;;13.70;99.90;;;;;;6217051;23;20024;-90
2023/08/06 02:58:39;;;;;;;2.92;1.67;;;13.70;99.90;;;;;;6216111;23;20144;-87
2023/08/06 03:01:07;;;;;;;4.70;2.72;;;13.70;99.90;;;;;;6216292;23;20017;-89
2023/08/06 03:03:33;;;;;;;2.92;2.20;;;13.70;99.90;;;;;;6190489;23;20031;-89
2023/08/06 03:05:59;;;;;;;3.45;1.98;;;13.70;99.90;;;;;;6190607;23;20022;-90
2023/08/06 03:08:25;;;;;;;4.65;2.13;;;13.90;99.90;;;;;;6190884;23;20028;-89
2023/08/06 03:10:52;;;;;;;2.85;1.98;;;13.80;99.90;;;;;;6215084;23;20084;-89
2023/08/06 03:13:20;;;;;;;2.30;1.73;;;13.70;99.90;;;;;;6216974;23;20027;-88
2023/08/06 03:15:57;;;;;;;3.80;1.88;;;13.90;99.90;;;;;;6216601;23;20016;-91
2023/08/06 03:18:23;;;;;;;4.55;2.55;;;14.20;99.90;;;;;;6215435;23;20070;-90
2023/08/06 03:20:49;;;;;;;4.32;2.08;;;13.70;99.90;;;;;;6190725;23;20024;-88
2023/08/06 03:23:14;;;;;;;2.63;1.95;;;14.10;99.90;;;;;;6191354;23;20013;-90
2023/08/06 03:25:40;;;;;;;3.85;2.08;;;13.80;99.90;;;;;;6198452;23;20051;-90
2023/08/06 03:28:06;;;;;;;2.70;1.75;;;13.80;99.90;;;;;;6220466;23;20016;-88
2023/08/06 03:30:31;;;;;;;2.90;1.92;;;14.00;99.90;;;;;;6191079;23;20051;-89
2023/08/06 03:32:59;;;;;;;3.85;2.30;;;13.80;99.90;;;;;;6166213;23;20024;-89
2023/08/06 03:35:24;;;;;;;3.85;2.13;;;13.80;99.90;;;;;;6234759;23;20047;-89
2023/08/06 03:37:50;;;;;;;3.05;2.08;;;14.00;99.90;;;;;;6224085;23;20012;-89
2023/08/06 03:43:57;;;;;;;3.72;2.15;;;13.80;99.90;;;;;;6218260;23;20019;-89
2023/08/06 03:46:22;;;;;;;3.53;2.42;;;13.80;99.90;;;;;;6217943;23;20017;-89
2023/08/06 03:48:48;;;;;;;4.60;1.95;;;13.80;99.90;;;;;;6193167;23;20032;-89
2023/08/06 03:51:14;;;;;;;3.58;2.35;;;13.80;99.90;;;;;;6193900;23;20024;-91
2023/08/06 03:53:39;;;;;;;2.58;1.50;;;14.10;99.90;;;;;;6221287;23;20143;-88
2023/08/06 03:56:05;;;;;;;3.00;2.00;;;13.80;99.90;;;;;;6190717;23;20400;-89
2023/08/06 03:58:31;;;;;;;3.25;2.05;;;13.80;99.90;;;;;;6189999;23;20031;-90
2023/08/06 04:01:00;;;;;;;3.13;1.73;;;13.90;99.90;;;;;;6216540;23;20375;-90
2023/08/06 04:03:26;;;;;;;5.32;2.17;;;13.80;99.90;;;;;;6188786;23;20017;-87
2023/08/06 04:05:52;;;;;;;2.65;1.73;;;13.90;99.90;;;;;;6187844;23;20055;-86
2023/08/06 04:08:18;;;;;;;3.22;2.20;;;13.80;99.90;;;;;;6215303;23;20016;-87
2023/08/06 04:10:44;;;;;;;2.08;1.40;;;13.80;99.90;;;;;;6214971;23;20462;-86
2023/08/06 04:13:09;;;;;;;3.20;1.92;;;13.80;99.90;;;;;;6188774;23;20026;-86
2023/08/06 04:15:35;;;;;;;3.08;1.65;;;14.00;99.90;;;;;;6188913;23;20325;-86
2023/08/06 04:18:01;;;;;;;2.67;2.20;;;13.70;99.90;;;;;;6213455;23;20063;-86
2023/08/06 04:20:26;;;;;;;2.97;2.05;;;14.00;99.90;;;;;;6188529;23;20009;-86
2023/08/06 04:22:55;;;;;;;3.67;2.40;;;13.70;99.90;;;;;;6188792;23;20017;-86
2023/08/06 04:25:21;;;;;;;5.13;2.70;;;14.00;99.90;;;;;;6188462;23;20321;-86
2023/08/06 04:27:49;;;;;;;2.10;1.63;;;13.70;99.90;;;;;;6215592;23;20028;-86
2023/08/06 04:30:15;;;;;;;2.10;1.73;;;13.70;99.90;;;;;;6214294;23;20075;-86
2023/08/06 04:32:41;;;;;;;3.35;2.20;;;13.70;99.90;;;;;;6215328;23;20032;-86
2023/08/06 04:35:07;;;;;;;3.35;2.22;;;13.70;99.90;;;;;;6188768;23;20099;-86
2023/08/06 04:37:33;;;;;;;2.58;1.83;;;13.70;99.90;;;;;;6188681;23;20406;-85
2023/08/06 04:43:40;;;;;;;2.50;2.08;;;13.70;99.90;;;;;;6215356;23;20087;-86
2023/08/06 04:46:06;;;;;;;4.35;1.92;;;13.70;99.90;;;;;;6216815;23;20448;-87
2023/08/06 04:48:31;;;;;;;3.47;1.55;;;13.80;99.90;;;;;;6217108;23;20317;-86
2023/08/06 04:50:57;;;;;;;3.95;1.67;;;13.80;99.90;;;;;;6190159;23;20078;-87
2023/08/06 04:53:23;;;;;;;2.83;1.73;;;13.90;99.90;;;;;;6217397;23;20074;-87
2023/08/06 04:55:49;;;;;;;2.88;1.92;;;13.90;99.90;;;;;;6190784;23;20020;-87
2023/08/06 04:58:15;;;;;;;2.40;1.63;;;13.90;99.90;;;;;;6215696;23;20099;-87
2023/08/06 05:00:40;;;;;;;3.33;1.90;;;13.90;99.90;;;;;;6217125;23;20096;-87
2023/08/06 05:03:07;;;;;;;2.75;1.48;;;13.90;99.90;;;;;;6217322;23;20043;-87
2023/08/06 05:05:32;;;;;;;3.35;2.15;;;13.90;99.90;;;;;;6215931;23;20459;-87
2023/08/06 05:07:58;;;;;;;2.15;1.33;;;13.90;99.90;;;;;;6216874;23;20025;-87
2023/08/06 05:10:27;;;;;;;2.97;1.67;;;14.00;99.90;;;;;;6190470;23;20017;-87
2023/08/06 05:12:54;;;;;;;4.07;1.52;;;14.10;99.90;;;;;;6165114;23;20020;-87
2023/08/06 05:15:19;;;;;;;2.50;1.52;;;14.00;99.90;;;;;;6190630;23;20343;-87
2023/08/06 05:17:45;;;;;;;1.77;1.45;;;14.00;99.90;;;;;;6217450;23;20021;-87
2023/08/06 05:20:11;;;;;;;2.20;1.30;;;14.00;99.90;;;;;;6190709;23;20100;-87
2023/08/06 05:22:37;;;;;;;2.42;1.60;;;14.10;99.90;;;;;;6165326;23;20021;-87
2023/08/06 05:25:03;;;;;;;3.67;1.40;;;14.10;99.90;;;;;;6217230;23;20013;-88
2023/08/06 05:27:29;;;;;;;2.08;1.38;;;14.10;99.90;;;;;;6191718;23;20034;-87
2023/08/06 05:29:57;;;;;;;2.40;1.48;;;14.40;99.90;;;;;;6191027;23;20017;-87
2023/08/06 05:32:23;;;;;;;3.70;1.45;;;14.20;99.90;;;;;;6217301;23;20043;-87
2023/08/06 05:34:49;;;;;;;2.92;1.75;;;14.40;99.90;;;;;;6190520;23;20020;-87
2023/08/06 05:37:14;;;;;;;4.28;1.73;;;14.20;99.90;;;;;;6190688;23;20020;-88
2023/08/06 05:39:40;;;;;;;2.38;1.42;;;14.20;99.90;;;;;;6191906;23;20020;-87
2023/08/06 05:42:06;;;;;;;2.58;1.50;;;14.30;99.90;;;;;;6218247;23;20347;-88
2023/08/06 05:44:32;;;;;;;2.47;1.20;;;14.30;99.90;;;;;;6191341;23;20043;-87
2023/08/06 05:46:58;;;;;;;3.80;1.33;;;14.30;99.90;;;;;;6218023;23;20096;-88
2023/08/06 05:49:23;;;;;;;7.53;2.25;;;14.30;99.90;;;;;;6191704;23;20020;-88
2023/08/06 05:51:49;;;;;;;2.92;1.50;;;14.40;99.90;;;;;;6218435;23;20017;-88
2023/08/06 05:54:15;;;;;;;3.40;1.73;;;14.80;99.90;;;;;;6197330;23;20016;-88
2023/08/06 05:56:43;;;;;;;1.70;1.23;;;14.30;99.90;;;;;;6226492;23;20023;-87
2023/08/06 05:59:09;;;;;;;3.08;1.15;;;14.40;99.90;;;;;;6197073;23;20052;-84
2023/08/06 06:01:34;;;;;;;3.15;1.88;;;14.50;99.90;;;;;;6221588;23;20019;-87
2023/08/06 06:04:00;;;;;;;4.15;2.00;;;14.50;99.90;;;;;;6222416;23;20020;-86
2023/08/06 06:06:26;;;;;;;2.42;1.35;;;14.60;99.90;;;;;;6226777;23;20016;-84
2023/08/06 06:08:51;;;;;;;2.60;1.25;;;14.80;99.90;;;;;;6224929;23;20017;-85
2023/08/06 06:11:21;;;;;;;1.70;1.20;;;14.80;99.90;;;;;;6226534;23;20067;-86
2023/08/06 06:13:51;;;;;;;1.83;1.40;;;14.90;99.90;;;;;;6226148;23;20016;-83
2023/08/06 06:16:16;;;;;;;2.88;1.50;;;15.00;99.90;;;;;;6225796;23;20052;-85
2023/08/06 06:18:42;;;;;;;2.25;1.60;;;15.30;99.90;;;;;;6222853;23;20079;-86
2023/08/06 06:21:08;;;;;;;1.98;1.58;;;15.40;99.90;;;;;;6224265;23;20069;-85
2023/08/06 06:23:33;;;;;;;2.00;1.35;;;15.20;99.90;;;;;;6195705;23;20046;-87
2023/08/06 06:25:59;;;;;;;3.00;1.60;;;15.30;99.90;;;;;;6193810;23;20017;-85
2023/08/06 06:28:25;;;;;;;2.25;1.33;;;15.50;99.90;;;;;;6195772;23;20021;-85
2023/08/06 06:30:51;;;;;;;3.17;1.45;;;15.50;99.90;;;;;;6195380;23;20071;-86
2023/08/06 06:33:17;;;;;;;2.63;1.35;;;15.80;99.90;;;;;;6221809;23;20087;-85
2023/08/06 06:35:43;;;;;;;2.55;1.45;;;15.60;99.90;;;;;;6195459;23;20025;-85
2023/08/06 06:38:08;;;;;;;4.65;1.80;;;15.70;99.90;;;;;;6165147;23;20016;-83
2023/08/06 06:40:34;;;;;;;1.98;1.38;;;15.80;99.90;;;;;;6189399;23;20091;-91
2023/08/06 06:43:00;;;;;;;1.70;1.20;;;15.90;99.90;;;;;;6222555;23;20012;-90
2023/08/06 06:45:25;;;;;;;2.60;1.50;;;15.90;99.90;;;;;;6192196;23;20019;-83
2023/08/06 06:47:51;;;;;;;2.03;1.15;;;16.00;99.90;;;;;;6215390;23;20023;-83
2023/08/06 06:50:17;;;;;;;3.40;1.42;;;16.10;99.90;;;;;;6216234;23;20143;-84
2023/08/06 06:52:42;;;;;;;1.42;1.10;;;16.20;99.90;;;;;;6216136;23;20087;-86
2023/08/06 06:55:08;;;;;;;2.15;1.40;;;16.40;99.90;;;;;;6215608;23;20024;-82
2023/08/06 06:57:34;;;;;;;2.38;1.52;;;16.50;99.90;;;;;;6215730;23;20020;-83
2023/08/06 07:00:00;;;;;;;1.77;1.20;;;16.60;99.90;;;;;;6216064;23;20021;-83
2023/08/06 07:02:25;;;;;;;1.88;1.10;;;16.70;99.90;;;;;;6189469;23;20018;-85
2023/08/06 07:04:51;;;;;;;3.63;1.50;;;16.80;99.90;;;;;;6189170;23;20072;-82
2023/08/06 07:07:17;;;;;;;2.08;1.20;;;16.90;99.90;;;;;;6189675;23;20020;-82
2023/08/06 07:09:44;;;;;;;1.63;1.00;;;17.00;99.90;;;;;;6214678;23;20020;-83
2023/08/06 07:12:10;;;;;;;2.15;1.27;;;17.00;99.90;;;;;;6216085;23;20044;-84
2023/08/06 07:14:36;;;;;;;2.10;1.40;;;17.10;99.90;;;;;;6189311;23;20469;-85
2023/08/06 07:17:01;;;;;;;1.30;0.90;;;17.10;99.90;;;;;;6189212;23;20013;-82
2023/08/06 07:19:27;;;;;;;2.05;1.52;;;17.20;99.90;;;;;;6216128;23;20017;-82
2023/08/06 07:21:53;;;;;;;2.50;1.58;;;17.30;99.90;;;;;;6215358;23;20020;-82
2023/08/06 07:24:19;;;;;;;2.40;1.42;;;17.40;99.90;;;;;;6215727;23;20309;-83
2023/08/06 07:26:45;;;;;;;3.92;2.08;;;17.40;99.90;;;;;;6189628;23;20411;-82
2023/08/06 07:29:10;;;;;;;2.65;1.80;;;17.40;99.90;;;;;;6189589;23;20035;-83
2023/08/06 07:31:36;;;;;;;3.90;1.83;;;17.60;99.90;;;;;;6215169;23;20016;-83
2023/08/06 07:34:02;;;;;;;2.97;2.08;;;17.70;99.90;;;;;;6188937;23;20017;-82
2023/08/06 07:36:27;;;;;;;5.05;2.30;;;17.70;99.90;;;;;;6215808;23;20020;-83
2023/08/06 07:38:56;;;;;;;2.58;1.10;;;17.90;99.90;;;;;;6189206;23;20070;-82
2023/08/06 07:41:25;;;;;;;3.53;1.73;;;18.00;99.90;;;;;;6189199;23;20833;-82
2023/08/06 07:43:51;;;;;;;3.75;1.75;;;18.20;99.90;;;;;;6188874;23;20351;-83
2023/08/06 07:46:16;;;;;;;2.60;1.75;;;18.30;99.90;;;;;;6164055;23;20074;-83
2023/08/06 07:48:42;;;;;;;2.05;1.20;;;18.30;99.90;;;;;;6214351;23;20051;-82
2023/08/06 07:51:08;;;;;;;2.67;1.50;;;18.40;99.90;;;;;;6215845;23;20056;-82
2023/08/06 07:53:33;;;;;;;1.92;1.10;;;18.50;99.90;;;;;;6215733;23;20074;-82
2023/08/06 07:56:01;;;;;;;2.03;1.52;;;18.60;99.90;;;;;;6215848;23;20013;-82
2023/08/06 07:58:29;;;;;;;2.15;1.13;;;18.60;99.90;;;;;;6215939;23;20013;-82
2023/08/06 08:00:55;;;;;;;2.78;1.88;;;18.70;99.90;;;;;;6188884;23;20016;-82
2023/08/06 08:03:20;;;;;;;1.92;1.33;;;18.80;99.90;;;;;;6215616;23;20016;-82
2023/08/06 08:05:47;;;;;;;2.30;1.48;;;18.90;99.90;;;;;;6188706;23;20027;-83
2023/08/06 08:08:12;;;;;;;1.45;1.30;;;18.90;99.90;;;;;;6215598;23;20016;-83
2023/08/06 08:10:38;;;;;;;2.22;1.38;;;18.90;99.90;;;;;;6215370;23;20103;-83
2023/08/06 08:13:04;;;;;;;1.52;1.20;;;19.00;99.90;;;;;;6188661;23;20025;-83
2023/08/06 08:15:31;;;;;;;3.45;1.50;;;19.10;99.90;;;;;;6188844;23;20017;-83
2023/08/06 08:17:57;;;;;;;1.60;1.30;;;19.20;99.90;;;;;;6215994;23;20017;-83
2023/08/06 08:20:23;;;;;;;1.65;1.10;;;19.20;99.90;;;;;;6216343;23;20088;-83
2023/08/06 08:22:49;;;;;;;2.70;1.20;;;19.30;99.90;;;;;;6217857;23;20016;-83
2023/08/06 08:25:16;;;;;;;1.48;0.90;;;19.40;99.90;;;;;;6190250;23;20021;-83
2023/08/06 08:27:42;;;;;;;1.83;0.90;;;19.60;99.90;;;;;;6217923;23;20028;-82
2023/08/06 08:30:08;;;;;;;1.45;0.80;;;19.60;99.90;;;;;;6217884;23;20017;-83
2023/08/06 08:32:34;;;;;;;1.45;0.65;;;19.60;99.90;;;;;;6218102;23;20082;-82
2023/08/06 08:34:59;;;;;;;3.05;0.90;;;19.70;99.90;;;;;;6218430;23;20495;-82
2023/08/06 08:37:25;;;;;;;1.50;0.80;;;19.90;99.90;;;;;;6190678;23;20448;-83
2023/08/06 08:39:52;;;;;;;1.55;1.02;;;19.90;99.90;;;;;;6190721;23;20090;-81
2023/08/06 08:42:18;;;;;;;0.95;0.85;;;20.00;99.90;;;;;;6217760;23;20363;-85
2023/08/06 08:44:44;;;;;;;1.98;0.90;;;20.10;99.90;;;;;;6194380;23;20028;-89
2023/08/06 08:47:12;;;;;;;1.30;0.85;;;20.20;99.90;;;;;;6191143;23;20091;-87
2023/08/06 08:49:42;;;;;;;2.00;0.85;;;20.30;99.90;;;;;;6166356;23;20024;-88
2023/08/06 08:52:12;;;;;;;2.60;0.70;;;20.30;99.90;;;;;;6191256;23;20032;-86
2023/08/06 08:54:39;;;;;;;0.95;0.70;;;20.20;99.90;;;;;;6191561;23;20113;-86
2023/08/06 08:57:05;;;;;;;1.13;0.60;;;20.20;99.90;;;;;;6190332;23;20020;-86
2023/08/06 08:59:33;;;;;;;1.65;0.60;;;20.20;99.90;;;;;;6190241;23;20016;-88
2023/08/06 09:02:01;;;;;;;1.85;0.65;;;20.20;99.90;;;;;;6191522;23;20036;-88
2023/08/06 09:04:31;;;;;;;1.42;0.60;;;20.30;99.90;;;;;;6190803;23;20021;-89
2023/08/06 09:06:59;;;;;;;1.15;0.60;;;20.30;99.90;;;;;;6217335;23;20392;-87
2023/08/06 09:09:28;;;;;;;4.03;0.75;;;20.30;99.90;;;;;;6215733;23;20095;-87
2023/08/06 09:12:05;;;;;;;1.40;0.50;;;20.40;99.90;;;;;;6216050;23;20020;-88
2023/08/06 09:14:34;;;;;;;1.10;0.70;;;20.60;99.90;;;;;;6190907;23;20017;-88
2023/08/06 09:17:01;;;;;;;1.05;0.60;;;20.80;99.90;;;;;;6217229;23;20087;-88
2023/08/06 09:19:27;;;;;;;0.93;0.52;;;21.00;99.90;;;;;;6190340;23;20012;-88
2023/08/06 09:21:55;;;;;;;1.48;0.60;;;21.00;99.90;;;;;;6190462;23;20059;-87
2023/08/06 09:24:21;;;;;;;1.17;0.52;;;21.10;99.90;;;;;;6190557;23;20051;-88
2023/08/06 09:26:47;;;;;;;0.88;0.50;;;21.10;99.90;;;;;;6190807;23;20055;-89
2023/08/06 09:29:14;;;;;;;0.60;0.40;;;21.30;99.90;;;;;;6165508;23;20424;-88
2023/08/06 09:31:52;;;;;;;0.85;0.50;;;21.20;99.90;;;;;;6217417;23;20062;-88
2023/08/06 09:34:22;;;;;;;2.00;0.60;;;21.30;99.90;;;;;;6217609;23;20024;-88
2023/08/06 09:36:54;;;;;;;0.90;0.60;;;21.20;99.90;;;;;;6190480;23;20048;-89
2023/08/06 09:39:28;;;;;;;0.95;0.60;;;21.10;99.90;;;;;;6165453;23;20017;-88
2023/08/06 09:41:58;;;;;;;1.90;0.60;;;21.20;99.90;;;;;;6189827;23;20062;-88
2023/08/06 09:44:26;;;;;;;0.57;0.52;;;21.30;99.90;;;;;;6190364;23;20016;-88
2023/08/06 09:46:57;;;;;;;1.55;0.52;;;21.30;99.90;;;;;;6215533;23;20056;-88
2023/08/06 09:49:27;;;;;;;2.70;0.57;;;21.30;99.90;;;;;;6190828;23;20027;-90
2023/08/06 09:51:55;;;;;;;3.13;0.52;;;21.30;99.90;;;;;;6190774;23;20039;-88
2023/08/06 09:54:23;;;;;;;0.90;0.60;;;21.30;99.90;;;;;;6216047;23;20020;-89
2023/08/06 09:56:49;;;;;;;3.00;0.47;;;21.40;99.90;;;;;;6216354;23;20016;-87
2023/08/06 09:59:16;;;;;;;1.23;0.60;;;21.50;99.90;;;;;;6165447;23;20020;-87
2023/08/06 10:01:45;;;;;;;2.25;0.60;;;21.50;99.90;;;;;;6218578;23;20016;-88
2023/08/06 10:04:12;;;;;;;0.70;0.45;;;21.60;99.90;;;;;;6191662;23;20127;-86
2023/08/06 10:06:41;;;;;;;0.95;0.60;;;21.70;99.90;;;;;;6193449;23;20016;-87
2023/08/06 10:09:08;;;;;;;1.52;0.70;;;21.70;99.90;;;;;;6216953;23;20092;-86
2023/08/06 10:11:41;;;;;;;1.27;0.63;;;21.70;99.90;;;;;;6195936;23;20070;-88
2023/08/06 10:14:24;;;;;;;1.08;0.60;;;21.60;99.90;;;;;;6190591;23;20017;-93
2023/08/06 10:16:51;;;;;;;0.60;0.40;;;21.40;99.90;;;;;;6190463;23;20016;-88
2023/08/06 10:19:18;;;;;;;1.25;0.75;;;21.40;99.90;;;;;;6191031;23;20008;-89
2023/08/06 10:22:32;;;;;;;1.88;0.70;;;21.60;99.90;;;;;;6190029;23;20023;-88
2023/08/06 10:25:04;;;;;;;0.90;0.43;;;21.70;99.90;;;;;;6101308;23;20018;-90
2023/08/06 10:27:35;;;;;;;1.80;0.40;;;21.70;99.90;;;;;;6101567;23;20141;-88
2023/08/06 10:30:25;;;;;;;0.77;0.40;;;21.90;99.90;;;;;;6103220;23;20029;-88
2023/08/06 10:32:53;;;;;;;1.00;0.50;;;22.00;99.90;;;;;;6101141;23;20141;-88
2023/08/06 10:35:40;;;;;;;0.75;0.40;;;22.10;99.90;;;;;;6126599;23;20426;-89
2023/08/06 10:38:13;;;;;;;0.90;0.60;;;22.10;99.90;;;;;;6102862;23;20026;-87
2023/08/06 10:40:53;;;;;;;0.93;0.55;;;22.10;99.90;;;;;;6104006;23;20024;-87
2023/08/06 10:43:27;;;;;;;1.45;0.52;;;22.10;99.90;;;;;;6105148;23;20065;-87
2023/08/06 10:45:56;;;;;;;1.60;0.40;;;22.20;99.90;;;;;;6106694;23;20046;-86
2023/08/06 10:48:38;;;;;;;0.60;0.40;;;22.20;99.90;;;;;;6107406;23;20022;-86
2023/08/06 10:51:08;;;;;;;1.23;0.52;;;22.30;99.90;;;;;;6107118;23;20021;-87
2023/08/06 10:53:34;;;;;;;0.45;0.40;;;22.20;99.90;;;;;;6107732;23;20022;-87
2023/08/06 10:56:23;;;;;;;1.13;0.40;;;22.50;99.90;;;;;;6188845;23;20017;-87
2023/08/06 10:58:51;;;;;;;0.90;0.50;;;22.50;99.90;;;;;;6197298;23;20056;-87
2023/08/06 11:01:21;;;;;;;1.00;0.57;;;22.50;99.90;;;;;;6198399;23;20828;-86
2023/08/06 11:03:49;;;;;;;1.23;0.50;;;22.50;99.90;;;;;;6224550;23;20017;-86
2023/08/06 11:06:19;;;;;;;1.17;0.50;;;22.30;99.90;;;;;;6198375;23;20023;-87
2023/08/06 11:08:50;;;;;;;1.15;0.50;;;22.30;99.90;;;;;;6225628;23;20424;-87
2023/08/06 11:11:17;;;;;;;1.00;0.60;;;22.30;99.90;;;;;;6199423;23;20012;-88
2023/08/06 11:13:52;;;;;;;1.23;0.60;;;22.50;99.90;;;;;;6199777;23;20474;-86
2023/08/06 11:16:20;;;;;;;0.70;0.43;;;22.40;99.90;;;;;;6200887;23;20017;-87
2023/08/06 11:18:47;;;;;;;1.25;0.40;;;22.50;99.90;;;;;;6199941;23;20024;-89
2023/08/06 11:21:13;;;;;;;3.33;0.57;;;22.30;99.90;;;;;;6200927;23;20016;-86
2023/08/06 11:23:40;;;;;;;1.25;0.47;;;22.50;99.90;;;;;;6200372;23;20020;-87
2023/08/06 11:26:06;;;;;;;1.10;0.50;;;22.50;99.90;;;;;;6199462;23;20023;-87
2023/08/06 11:28:32;;;;;;;0.73;0.40;;;22.60;99.90;;;;;;6199422;23;20013;-87
2023/08/06 11:31:01;;;;;;;2.40;0.57;;;22.70;99.90;;;;;;6198005;23;20020;-86
2023/08/06 11:33:27;;;;;;;0.95;0.50;;;22.80;99.90;;;;;;6199446;23;20017;-86
2023/08/06 11:35:59;;;;;;;1.40;0.60;;;22.80;99.90;;;;;;6199422;23;20047;-85
2023/08/06 11:38:26;;;;;;;1.38;0.60;;;22.60;99.90;;;;;;6200547;23;20072;-87
2023/08/06 11:40:52;;;;;;;0.75;0.65;;;22.50;99.90;;;;;;6200800;23;20017;-89
2023/08/06 11:43:22;;;;;;;1.45;0.80;;;22.40;99.90;;;;;;6226432;23;20017;-85
2023/08/06 11:45:49;;;;;;;1.17;0.50;;;22.50;99.90;;;;;;6200623;23;20019;-87
2023/08/06 11:48:15;;;;;;;1.23;0.52;;;22.80;99.90;;;;;;6202347;23;20066;-86
2023/08/06 11:50:40;;;;;;;1.00;0.50;;;22.50;99.90;;;;;;6228500;23;20020;-86
2023/08/06 11:53:06;;;;;;;1.25;0.60;;;22.50;99.90;;;;;;6228022;23;20043;-85
2023/08/06 11:55:33;;;;;;;0.77;0.50;;;22.30;99.90;;;;;;6227840;23;20027;-86
2023/08/06 11:58:06;;;;;;;0.90;0.50;;;22.50;99.90;;;;;;6203797;23;20012;-89
2023/08/06 12:00:32;;;;;;;3.65;0.50;;;22.60;99.90;;;;;;6227489;23;20027;-86
2023/08/06 12:02:58;;;;;;;0.70;0.40;;;22.60;99.90;;;;;;6226840;23;20448;-88
2023/08/06 12:05:30;;;;;;;0.80;0.40;;;22.50;99.90;;;;;;6199300;23;20451;-87
2023/08/06 12:08:00;;;;;;;1.42;0.43;;;22.50;99.90;;;;;;6198571;23;20021;-89
2023/08/06 12:10:28;;;;;;;1.25;0.50;;;22.70;99.90;;;;;;6199000;23;20017;-89
2023/08/06 12:12:57;;;;;;;1.50;0.68;;;22.70;99.90;;;;;;6231039;23;20021;-88
2023/08/06 12:15:23;;;;;;;0.93;0.50;;;22.90;99.90;;;;;;6215204;23;20082;-88
2023/08/06 12:17:49;;;;;;;1.50;0.50;;;22.80;99.90;;;;;;6243554;23;20067;-87
2023/08/06 12:20:18;;;;;;;0.75;0.40;;;22.90;99.90;;;;;;6217671;23;20032;-89
2023/08/06 12:22:45;;;;;;;0.70;0.38;;;22.80;99.90;;;;;;6241421;23;20020;-87
2023/08/06 12:25:13;;;;;;;1.25;0.50;;;23.00;99.90;;;;;;6242298;23;20444;-88
2023/08/06 12:27:43;;;;;;;1.10;0.50;;;22.80;99.90;;;;;;6242000;23;20017;-85
2023/08/06 12:30:10;;;;;;;0.68;0.50;;;23.00;99.90;;;;;;6215094;23;20040;-87
2023/08/06 12:32:36;;;;;;;1.13;0.52;;;23.10;99.90;;;;;;6240651;23;20016;-87
2023/08/06 12:35:02;;;;;;;0.77;0.50;;;23.50;99.90;;;;;;6221824;23;20106;-86
2023/08/06 12:37:28;;;;;;;0.77;0.40;;;23.50;99.90;;;;;;6194083;23;20443;-86
2023/08/06 12:39:54;;;;;;;3.33;0.52;;;23.60;99.90;;;;;;6220444;23;20139;-89
2023/08/06 12:42:19;;;;;;;0.43;0.30;;;23.50;99.90;;;;;;6193237;23;20025;-88
2023/08/06 12:44:48;;;;;;;0.47;0.35;;;23.50;99.90;;;;;;6171417;23;20038;-86
2023/08/06 12:47:17;;;;;;;0.75;0.47;;;23.30;99.90;;;;;;6169311;23;20070;-87
2023/08/06 12:49:43;;;;;;;0.68;0.45;;;23.50;99.90;;;;;;6193161;23;20017;-90
2023/08/06 12:52:09;;;;;;;0.55;0.28;;;23.90;99.90;;;;;;6218030;23;20067;-88
2023/08/06 12:54:36;;;;;;;0.63;0.40;;;24.10;99.90;;;;;;6192572;23;20106;-88
2023/08/06 12:57:03;;;;;;;4.82;0.50;;;24.30;99.90;;;;;;6192192;23;20013;-86
2023/08/06 12:59:29;;;;;;;0.52;0.40;;;24.20;99.90;;;;;;6166761;23;20016;-87
2023/08/06 13:01:58;;;;;;;0.80;0.40;;;23.90;99.90;;;;;;6219080;23;20071;-89
2023/08/06 13:04:24;;;;;;;1.80;0.50;;;24.10;99.90;;;;;;6217169;23;20348;-87
2023/08/06 13:06:50;;;;;;;0.63;0.30;;;24.10;99.90;;;;;;6190682;23;20027;-86